Time;durP1;ratioP1;P1;durP2;ratioP2;P2;SDS_P1;SDS_P2;PMS_P1;PMS_P2;Temp;Humidity;BMP_temperature;BMP_pressure;BME280_temperature;BME280_humidity;BME280_pressure;Samples;Min_cycle;Max_cycle;Signal;HPM_P1;HPM_P2
2021/06/21 00:04:13;;;;;;;11.73;10.13;;;25.10;65.10;;;25.22;48.42;94098.19;5125158;27;20657;-80
2021/06/21 00:06:40;;;;;;;10.88;9.77;;;25.10;65.20;;;25.20;48.35;94098.47;5091277;28;20201;-81
2021/06/21 00:09:07;;;;;;;10.73;9.48;;;25.00;65.30;;;25.18;48.72;94106.06;5082634;28;20241;-81
2021/06/21 00:11:34;;;;;;;10.85;9.93;;;25.00;65.40;;;25.15;48.58;94103.19;5086058;28;20210;-81
2021/06/21 00:14:00;;;;;;;12.23;10.98;;;24.90;65.50;;;25.12;48.78;94107.28;5051155;28;20324;-80
2021/06/21 00:16:29;;;;;;;11.32;10.32;;;24.90;65.60;;;25.06;48.73;94095.84;4914721;29;20376;-81
2021/06/21 00:18:56;;;;;;;11.20;10.10;;;24.90;65.70;;;25.04;49.24;94114.13;4815272;29;20333;-81
2021/06/21 00:21:23;;;;;;;11.27;10.27;;;24.80;65.70;;;25.00;49.30;94113.16;4641604;29;20230;-81
2021/06/21 00:25:54;;;;;;;11.52;10.45;;;24.80;65.80;;;24.89;49.05;94114.47;5150251;27;20560;-81
2021/06/21 00:28:20;;;;;;;11.02;9.93;;;24.70;65.90;;;24.88;49.38;94111.00;5106974;28;20253;-80
2021/06/21 00:30:47;;;;;;;11.85;10.70;;;24.70;66.10;;;24.84;49.59;94096.63;5110050;27;20667;-80
2021/06/21 00:33:14;;;;;;;11.30;10.30;;;24.70;66.40;;;24.88;49.74;94102.97;5105001;28;20268;-81
2021/06/21 00:35:42;;;;;;;11.57;10.48;;;24.60;66.60;;;24.88;49.67;94096.81;5058986;28;20200;-80
2021/06/21 00:38:09;;;;;;;12.77;11.48;;;24.60;67.10;;;24.91;49.77;94104.25;4984976;28;20662;-80
2021/06/21 00:40:38;;;;;;;11.05;9.82;;;24.60;67.10;;;24.94;49.98;94104.44;4900968;29;20272;-81
2021/06/21 00:43:06;;;;;;;12.35;11.20;;;24.60;67.10;;;24.96;50.55;94109.47;4745136;29;20274;-80
2021/06/21 00:47:52;;;;;;;12.07;10.88;;;24.60;67.10;;;25.01;50.42;94105.91;5135638;27;20579;-79
2021/06/21 00:50:20;;;;;;;10.48;9.57;;;24.70;67.20;;;25.01;50.28;94103.22;5082557;28;20238;-81
2021/06/21 00:52:48;;;;;;;11.95;10.85;;;24.70;67.20;;;25.05;50.59;94110.38;5093472;28;20205;-81
2021/06/21 00:55:15;;;;;;;11.13;10.13;;;24.70;67.20;;;25.05;50.27;94109.59;5053766;28;20232;-80
2021/06/21 00:57:42;;;;;;;11.57;10.48;;;24.70;68.10;;;25.06;50.28;94105.78;5011812;28;20211;-80
2021/06/21 01:00:12;;;;;;;11.85;10.75;;;24.70;67.20;;;25.06;50.57;94100.41;4955631;28;20242;-82
2021/06/21 01:02:40;;;;;;;11.43;10.43;;;24.70;67.20;;;25.05;50.26;94094.25;4862968;29;20293;-81
2021/06/21 01:05:14;;;;;;;11.23;10.05;;;24.70;67.20;;;25.03;50.79;94096.44;4767891;29;20403;-80
2021/06/21 01:09:47;;;;;;;10.93;9.93;;;24.70;67.20;;;25.00;50.34;94086.34;5135491;27;20637;-81
2021/06/21 01:12:46;;;;;;;11.07;10.07;;;24.70;67.20;;;24.96;50.67;94087.25;5104626;28;20230;-80
2021/06/21 01:15:34;;;;;;;11.88;10.55;;;24.70;67.20;;;24.93;50.92;94080.59;5039276;28;20218;-81
2021/06/21 01:18:11;;;;;;;12.13;11.00;;;24.70;67.20;;;24.91;51.13;94075.53;5039372;28;20207;-80
2021/06/21 01:20:44;;;;;;;11.55;10.48;;;24.70;67.20;;;24.90;50.79;94075.81;4984153;28;20652;-81
2021/06/21 01:23:13;;;;;;;12.38;11.07;;;24.70;67.20;;;24.89;50.62;94067.00;4954846;28;20208;-81
2021/06/21 01:25:54;;;;;;;11.45;10.35;;;24.60;67.10;;;24.86;51.17;94064.91;4881648;29;20234;-82
2021/06/21 01:31:24;;;;;;;11.45;10.43;;;24.60;67.10;;;24.80;51.27;94060.75;5149681;27;20651;-81
2021/06/21 01:33:53;;;;;;;13.63;11.07;;;24.60;67.30;;;24.77;50.97;94067.53;5070221;28;20229;-80
2021/06/21 01:36:22;;;;;;;12.50;11.30;;;24.50;67.20;;;24.75;51.15;94068.91;5058708;28;20202;-80
2021/06/21 01:38:54;;;;;;;11.65;10.45;;;24.50;67.40;;;24.69;51.50;94062.88;5045482;28;20261;-80
2021/06/21 01:41:26;;;;;;;10.80;9.68;;;24.50;67.70;;;24.69;51.17;94064.78;5017641;28;20293;-81
2021/06/21 01:43:55;;;;;;;11.07;10.07;;;24.50;67.90;;;24.65;51.50;94059.19;4915226;28;20238;-79
2021/06/21 01:46:30;;;;;;;12.18;9.77;;;24.40;67.70;;;24.61;51.60;94061.69;4836213;29;24914;-80
2021/06/21 01:49:14;;;;;;;9.98;9.07;;;24.40;67.90;;;24.52;51.22;94054.66;4634114;30;20257;-81
2021/06/21 01:51:57;;;;;;;11.95;10.95;;;24.40;68.70;;;24.52;51.60;94060.78;5149676;27;20378;-81
2021/06/21 01:54:28;;;;;;;11.93;10.73;;;24.30;68.10;;;24.49;51.76;94060.63;5085488;28;20228;-80
2021/06/21 01:56:58;;;;;;;11.10;10.00;;;24.30;67.70;;;24.41;51.56;94056.75;5019130;28;20227;-81
2021/06/21 01:59:27;;;;;;;11.55;10.55;;;24.30;68.00;;;24.40;51.66;94055.16;5007405;28;20232;-80
2021/06/21 02:01:57;;;;;;;11.65;10.55;;;24.20;68.00;;;24.36;51.68;94060.31;4917595;29;20686;-80
2021/06/21 02:04:29;;;;;;;11.02;9.98;;;24.20;67.90;;;24.30;52.02;94051.63;4850784;29;20230;-80
2021/06/21 02:06:57;;;;;;;11.77;10.60;;;24.20;68.10;;;24.28;51.91;94058.38;4694794;30;20230;-84
2021/06/21 02:09:25;;;;;;;11.95;10.85;;;24.10;68.00;;;24.22;51.89;94063.03;4513630;31;20251;-80
2021/06/21 02:12:05;;;;;;;11.73;10.52;;;24.10;68.10;;;24.16;52.01;94066.91;5130471;27;20303;-81
2021/06/21 02:14:34;;;;;;;11.75;10.55;;;24.00;68.10;;;24.09;52.22;94064.59;5102959;28;20222;-80
2021/06/21 02:17:02;;;;;;;11.55;10.55;;;24.00;68.00;;;24.01;52.16;94054.63;5014507;28;20219;-80
2021/06/21 02:19:31;;;;;;;12.20;11.00;;;23.90;68.30;;;23.93;52.52;94061.44;5036161;28;20234;-80
2021/06/21 02:21:59;;;;;;;12.57;11.38;;;23.90;68.40;;;23.87;52.86;94051.09;5016768;28;20632;-80
2021/06/21 02:24:27;;;;;;;11.23;10.23;;;23.90;68.40;;;23.80;52.20;94051.47;4991382;28;20337;-81
2021/06/21 02:26:54;;;;;;;12.95;11.65;;;23.70;68.30;;;23.73;52.89;94059.91;4902403;29;20554;-80
2021/06/21 02:29:24;;;;;;;11.95;10.75;;;23.70;68.40;;;23.66;52.68;94051.47;4808715;29;20374;-80
2021/06/21 02:33:44;;;;;;;11.90;10.70;;;23.60;68.70;;;23.54;53.17;94054.63;5143087;27;20577;-80
2021/06/21 02:36:13;;;;;;;11.70;10.48;;;23.50;68.50;;;23.52;53.06;94056.78;5089235;28;20246;-81
2021/06/21 02:38:40;;;;;;;11.43;10.32;;;23.50;68.80;;;23.50;53.01;94056.31;5099515;28;20226;-80
2021/06/21 02:41:06;;;;;;;11.75;10.65;;;23.40;68.70;;;23.47;52.89;94056.88;5021933;28;20204;-80
2021/06/21 02:43:33;;;;;;;12.18;10.88;;;23.40;68.90;;;23.44;53.10;94057.50;4982003;28;20637;-80
2021/06/21 02:46:03;;;;;;;11.65;10.60;;;23.40;68.90;;;23.42;53.44;94054.31;4941208;28;20723;-81
2021/06/21 02:48:29;;;;;;;12.20;10.93;;;23.30;69.00;;;23.38;53.41;94059.44;4835681;29;20241;-81
2021/06/21 02:50:57;;;;;;;11.38;10.38;;;23.20;69.00;;;23.36;53.11;94060.84;4668099;29;20232;-80
2021/06/21 02:56:15;;;;;;;11.25;10.15;;;23.20;69.00;;;23.24;53.32;94078.16;5139755;27;20571;-80
2021/06/21 02:58:45;;;;;;;10.68;9.70;;;23.20;69.20;;;23.24;53.46;94075.47;5076731;28;20246;-80
2021/06/21 03:01:16;;;;;;;11.77;10.55;;;23.10;69.20;;;23.21;53.29;94089.41;5063254;28;20230;-79
2021/06/21 03:03:55;;;;;;;11.80;10.70;;;23.10;69.60;;;23.18;53.72;94085.44;5009950;28;20325;-81
2021/06/21 03:06:23;;;;;;;11.98;10.88;;;23.10;69.80;;;23.18;53.92;94082.00;4969507;28;20223;-80
2021/06/21 03:08:52;;;;;;;12.38;11.27;;;23.00;69.60;;;23.16;53.90;94081.44;4979675;28;20240;-81
2021/06/21 03:11:19;;;;;;;12.15;11.02;;;23.00;69.70;;;23.15;53.40;94090.56;4813461;29;20465;-80
2021/06/21 03:13:51;;;;;;;12.80;11.50;;;23.00;69.70;;;23.13;54.08;94090.03;4594599;30;20730;-80
2021/06/21 03:18:08;;;;;;;12.68;11.48;;;23.00;69.90;;;23.08;53.86;94087.47;5143082;27;20537;-80
2021/06/21 03:20:34;;;;;;;13.25;11.68;;;23.00;69.90;;;23.10;53.94;94088.75;5085953;28;20294;-79
2021/06/21 03:23:03;;;;;;;12.05;10.95;;;22.90;69.90;;;23.10;54.10;94088.75;5067563;28;20197;-80
2021/06/21 03:25:35;;;;;;;13.25;11.95;;;22.90;70.30;;;23.15;54.45;94099.38;5081760;28;20209;-80
2021/06/21 03:28:13;;;;;;;13.45;12.05;;;22.90;70.50;;;23.20;54.46;94098.53;5018334;28;20297;-80
2021/06/21 03:30:48;;;;;;;11.50;10.50;;;22.90;70.90;;;23.24;54.76;94098.75;4953632;28;20223;-80
2021/06/21 03:33:15;;;;;;;12.90;11.70;;;23.00;70.90;;;23.28;54.32;94102.44;4853827;29;20228;-80
2021/06/21 03:35:42;;;;;;;12.98;11.77;;;23.00;70.70;;;23.34;54.34;94104.72;4682398;29;20885;-80
2021/06/21 03:38:24;;;;;;;13.65;12.35;;;23.00;70.80;;;23.38;54.60;94104.16;5129954;27;20582;-80
2021/06/21 03:40:52;;;;;;;14.48;12.70;;;23.10;71.20;;;23.42;54.81;94113.97;5074040;28;20212;-79
2021/06/21 03:43:22;;;;;;;14.88;13.50;;;23.10;71.10;;;23.48;54.95;94110.13;5052226;28;20200;-80
2021/06/21 03:45:52;;;;;;;12.77;11.48;;;23.20;71.40;;;23.55;54.79;94115.09;5024367;28;20216;-80
2021/06/21 03:48:21;;;;;;;12.88;11.57;;;23.20;71.30;;;23.59;54.97;94124.13;4987154;28;20207;-81
2021/06/21 03:50:48;;;;;;;13.93;11.52;;;23.20;71.40;;;23.63;54.79;94118.97;4857815;29;20699;-80
2021/06/21 03:53:19;;;;;;;13.00;11.60;;;23.30;71.40;;;23.67;54.83;94120.00;4821254;29;20212;-81
2021/06/21 03:55:45;;;;;;;12.13;11.02;;;23.30;71.50;;;23.71;54.61;94109.50;4758701;29;20225;-81
2021/06/21 04:00:47;;;;;;;14.52;13.13;;;23.40;71.50;;;23.85;55.02;94121.00;5125989;27;20569;-81
2021/06/21 04:03:14;;;;;;;12.70;11.55;;;23.40;71.70;;;23.89;54.94;94134.59;5064017;28;20213;-82
2021/06/21 04:05:41;;;;;;;12.75;11.40;;;23.40;71.70;;;23.94;55.08;94135.34;5070433;28;20258;-81
2021/06/21 04:08:12;;;;;;;13.30;12.05;;;23.50;71.70;;;23.99;54.84;94134.47;5060550;28;20654;-82
2021/06/21 04:10:39;;;;;;;13.20;12.00;;;23.60;71.80;;;24.01;55.87;94134.16;4982113;28;20258;-81
2021/06/21 04:13:07;;;;;;;14.10;12.88;;;23.60;72.00;;;23.98;56.55;94148.94;4887496;29;20206;-80
2021/06/21 04:15:35;;;;;;;13.75;12.43;;;23.70;72.40;;;23.92;56.78;94155.44;4872581;29;20281;-80
2021/06/21 04:18:10;;;;;;;13.93;12.60;;;23.70;72.60;;;23.92;56.83;94153.59;4572394;30;20658;-81
2021/06/21 04:20:48;;;;;;;12.32;11.13;;;23.70;72.60;;;23.92;56.08;94142.06;5125252;27;20303;-81
2021/06/21 04:23:15;;;;;;;11.75;10.65;;;23.70;72.30;;;23.96;56.21;94153.78;5095684;28;20211;-79
2021/06/21 04:25:42;;;;;;;12.90;11.63;;;23.70;72.30;;;24.03;55.56;94164.13;5057694;28;20210;-81
2021/06/21 04:28:10;;;;;;;12.73;11.50;;;23.70;72.30;;;24.05;56.11;94154.72;5043837;28;20215;-81
2021/06/21 04:30:38;;;;;;;11.63;10.65;;;23.70;72.20;;;24.11;56.08;94150.84;5002923;28;20213;-80
2021/06/21 04:33:06;;;;;;;12.70;11.15;;;23.70;72.50;;;24.16;55.97;94154.50;4824915;29;20221;-80
2021/06/21 04:35:33;;;;;;;11.38;10.32;;;23.80;72.40;;;24.21;55.71;94147.19;4698246;30;20239;-80
2021/06/21 04:37:59;;;;;;;12.50;11.13;;;23.80;72.20;;;24.26;55.39;94143.63;4445596;31;20241;-79
2021/06/21 04:42:15;;;;;;;11.68;10.63;;;23.80;72.20;;;24.35;55.49;94146.38;5124964;27;20575;-81
2021/06/21 04:44:41;;;;;;;11.90;10.80;;;23.90;72.20;;;24.39;55.59;94147.38;5091820;28;20232;-79
2021/06/21 04:47:08;;;;;;;12.93;11.77;;;24.00;72.20;;;24.41;55.22;94151.38;5046591;28;20219;-78
2021/06/21 04:49:35;;;;;;;12.50;11.27;;;24.00;72.30;;;24.49;55.35;94149.88;5066292;28;20591;-79
2021/06/21 04:52:05;;;;;;;11.63;10.55;;;24.00;72.30;;;24.50;55.56;94151.47;5000242;28;20696;-80
2021/06/21 04:54:32;;;;;;;12.10;10.98;;;24.10;72.50;;;24.53;55.39;94137.44;4957670;28;20592;-78
2021/06/21 04:57:00;;;;;;;12.63;11.48;;;24.10;72.30;;;24.55;55.37;94151.34;4893782;28;20300;-79
2021/06/21 04:59:27;;;;;;;12.48;11.27;;;24.20;72.30;;;24.58;55.42;94156.13;4783747;29;20270;-79
2021/06/21 05:04:30;;;;;;;12.45;11.35;;;24.20;72.30;;;24.65;55.59;94153.03;5132742;27;20705;-79
2021/06/21 05:06:56;;;;;;;12.60;11.40;;;24.20;72.20;;;24.69;55.27;94150.56;5066940;28;20201;-79
2021/06/21 05:09:24;;;;;;;11.95;10.85;;;24.30;72.30;;;24.71;55.14;94149.19;5066712;28;20244;-79
2021/06/21 05:11:51;;;;;;;11.55;10.45;;;24.30;72.10;;;24.77;55.09;94137.25;5022236;28;20199;-79
2021/06/21 05:14:17;;;;;;;11.57;10.38;;;24.30;72.20;;;24.85;55.21;94143.00;4984995;28;20325;-80
2021/06/21 05:16:45;;;;;;;12.75;11.23;;;24.40;72.20;;;24.90;55.34;94143.69;4852187;29;20223;-78
2021/06/21 05:19:12;;;;;;;11.00;10.07;;;24.40;72.30;;;25.01;55.25;94138.09;4812330;29;20231;-79
2021/06/21 05:21:39;;;;;;;11.85;10.70;;;24.50;72.20;;;25.04;55.13;94132.91;4713428;29;20633;-79
2021/06/21 05:26:43;;;;;;;11.60;10.57;;;24.50;72.20;;;25.29;55.40;94127.28;5149654;27;20528;-79
2021/06/21 05:29:10;;;;;;;11.55;10.35;;;24.70;72.40;;;25.45;54.92;94127.72;5110919;28;20231;-79
2021/06/21 05:31:37;;;;;;;12.52;11.48;;;24.80;72.50;;;25.59;54.87;94141.09;5083728;28;20284;-79
2021/06/21 05:34:06;;;;;;;12.07;10.98;;;24.90;72.40;;;25.74;54.60;94143.41;5060821;28;20230;-79
2021/06/21 05:36:33;;;;;;;11.27;10.25;;;25.00;72.40;;;25.86;54.46;94137.47;4965392;28;20208;-80
2021/06/21 05:39:00;;;;;;;11.63;10.63;;;25.10;72.30;;;26.00;54.64;94148.13;4850253;29;20241;-79
2021/06/21 05:41:27;;;;;;;11.60;10.60;;;25.20;72.10;;;26.09;54.47;94145.53;4711816;30;20219;-78
2021/06/21 05:43:53;;;;;;;12.02;10.93;;;25.30;72.00;;;26.15;54.20;94139.69;4579334;30;20260;-78
2021/06/21 05:48:52;;;;;;;12.82;10.95;;;25.40;71.80;;;26.26;54.15;94139.44;5133664;27;20327;-78
2021/06/21 05:51:19;;;;;;;12.07;10.98;;;25.60;71.50;;;26.29;53.91;94146.88;5081039;28;20212;-79
2021/06/21 05:53:49;;;;;;;12.23;11.13;;;25.60;71.50;;;26.33;54.05;94142.44;5060235;28;20321;-79
2021/06/21 05:56:16;;;;;;;13.50;11.05;;;25.70;71.50;;;26.36;54.14;94137.25;5055154;28;20214;-79
2021/06/21 05:58:44;;;;;;;11.68;10.57;;;25.70;71.40;;;26.40;53.93;94136.63;4918384;28;20298;-78
2021/06/21 06:01:11;;;;;;;12.27;11.07;;;25.80;72.30;;;26.45;53.67;94134.59;4840937;29;20230;-80
2021/06/21 06:03:38;;;;;;;12.68;11.45;;;25.80;71.30;;;26.49;53.70;94140.16;4724489;29;20238;-78
2021/06/21 06:06:06;;;;;;;12.77;11.32;;;25.90;71.30;;;26.56;53.68;94145.06;4545860;30;20239;-78
2021/06/21 06:08:39;;;;;;;12.57;11.25;;;25.90;71.20;;;26.60;53.44;94144.13;5136361;27;20320;-79
2021/06/21 06:11:05;;;;;;;12.07;10.95;;;26.00;71.30;;;26.66;54.11;94144.78;5083890;28;20210;-79
2021/06/21 06:13:32;;;;;;;12.60;11.27;;;26.00;71.20;;;26.74;53.59;94141.31;5100115;28;20679;-78
2021/06/21 06:15:59;;;;;;;11.68;10.68;;;26.10;71.30;;;26.84;53.52;94135.66;5046681;28;20212;-79
2021/06/21 06:18:26;;;;;;;12.15;11.05;;;26.10;71.10;;;26.93;53.71;94130.28;4957856;28;20256;-79
2021/06/21 06:20:52;;;;;;;11.95;10.95;;;26.20;71.10;;;27.01;53.65;94131.41;4900494;29;20219;-79
2021/06/21 06:23:37;;;;;;;11.93;10.82;;;26.20;70.90;;;27.05;53.13;94137.75;4747700;29;20263;-79
2021/06/21 06:26:04;;;;;;;12.73;11.52;;;26.30;70.70;;;27.10;53.30;94142.16;4443367;30;20857;-80
2021/06/21 06:28:40;;;;;;;12.55;11.45;;;26.40;70.70;;;27.15;53.37;94142.81;5136713;27;20317;-79
2021/06/21 06:31:07;;;;;;;12.52;11.23;;;26.40;70.50;;;27.19;53.08;94144.88;5053976;28;20230;-79
2021/06/21 06:33:36;;;;;;;12.55;11.20;;;26.50;70.70;;;27.24;53.33;94142.03;5066565;28;20303;-79
2021/06/21 06:36:04;;;;;;;12.60;11.40;;;26.60;70.70;;;27.28;52.93;94145.66;5053564;28;20205;-79
2021/06/21 06:38:31;;;;;;;12.35;11.20;;;26.60;70.60;;;27.33;52.94;94150.88;4970722;28;20226;-79
2021/06/21 06:41:03;;;;;;;16.25;11.93;;;26.70;70.60;;;27.41;53.26;94146.66;4837941;29;20220;-79
2021/06/21 06:43:31;;;;;;;12.73;11.45;;;26.70;70.60;;;27.55;52.83;94147.28;4727638;30;20258;-78
2021/06/21 06:45:57;;;;;;;13.52;12.23;;;26.80;70.50;;;27.69;52.73;94147.09;4560408;30;20358;-79
2021/06/21 06:50:33;;;;;;;13.50;12.30;;;26.90;70.60;;;27.91;52.44;94145.31;5140267;27;20631;-80
2021/06/21 06:53:01;;;;;;;14.05;12.65;;;27.10;70.40;;;28.05;52.53;94148.66;5094382;27;20572;-79
2021/06/21 06:58:14;;;;;;;14.15;12.95;;;27.30;69.90;;;28.19;51.98;94171.91;5011604;28;20212;-79
2021/06/21 07:00:40;;;;;;;15.48;14.02;;;27.40;69.60;;;28.17;51.81;94161.44;4905224;28;20643;-80
2021/06/21 07:03:08;;;;;;;14.80;13.35;;;27.50;69.30;;;28.15;51.51;94160.97;4774941;29;20232;-79
2021/06/21 07:05:36;;;;;;;14.10;12.63;;;27.50;69.30;;;28.13;52.11;94165.13;4582884;30;20701;-80
2021/06/21 07:08:04;;;;;;;15.27;13.68;;;27.50;69.30;;;28.14;51.66;94158.59;4400057;31;20244;-80
2021/06/21 07:10:41;;;;;;;14.05;12.75;;;27.60;69.30;;;28.15;52.27;94170.97;5143960;27;20308;-80
2021/06/21 07:13:08;;;;;;;14.93;13.45;;;27.60;69.40;;;28.15;52.22;94163.69;5087036;28;20546;-80
2021/06/21 07:15:38;;;;;;;15.32;13.73;;;27.60;69.50;;;28.21;52.12;94162.38;5091271;28;20212;-80
2021/06/21 07:18:07;;;;;;;17.25;13.30;;;27.60;69.60;;;28.29;52.08;94163.47;5051825;28;20206;-78
2021/06/21 07:20:34;;;;;;;14.70;13.20;;;27.70;69.50;;;28.35;52.06;94156.78;4978183;28;20659;-81
2021/06/21 07:23:00;;;;;;;14.23;12.93;;;27.70;69.40;;;28.43;51.84;94160.56;4824598;29;20215;-82
2021/06/21 07:25:27;;;;;;;16.75;15.25;;;27.70;69.40;;;28.52;51.46;94174.78;4676959;30;20755;-80
2021/06/21 07:27:53;;;;;;;16.20;14.70;;;27.80;69.00;;;28.54;51.05;94171.75;4491749;31;20558;-80
2021/06/21 07:32:23;;;;;;;18.40;16.63;;;27.90;69.10;;;28.45;50.93;94182.59;5135164;27;20528;-80
2021/06/21 07:34:50;;;;;;;16.92;15.20;;;28.00;68.60;;;28.44;51.08;94178.31;5090146;28;20225;-80
2021/06/21 07:37:17;;;;;;;17.52;15.90;;;28.00;68.80;;;28.46;51.38;94165.31;5075427;28;20347;-80
2021/06/21 07:39:43;;;;;;;17.15;15.65;;;28.00;69.00;;;28.51;51.47;94169.72;5036725;28;20269;-80
2021/06/21 07:42:10;;;;;;;16.60;15.00;;;28.00;69.20;;;28.58;51.45;94180.81;4959352;28;20205;-80
2021/06/21 07:44:37;;;;;;;16.02;14.63;;;28.00;69.20;;;28.65;51.61;94173.00;4965852;28;20242;-79
2021/06/21 07:47:04;;;;;;;16.40;14.88;;;28.00;69.20;;;28.69;50.83;94171.25;4931662;28;20300;-79
2021/06/21 07:49:30;;;;;;;15.65;14.27;;;28.10;68.90;;;28.75;51.11;94164.56;4815842;29;20357;-80
2021/06/21 07:54:04;;;;;;;15.52;14.15;;;28.10;68.60;;;28.87;51.31;94163.06;5139332;27;20574;-81
2021/06/21 07:56:31;;;;;;;16.73;15.18;;;28.20;68.80;;;28.98;50.61;94163.47;5080535;28;20559;-80
2021/06/21 07:58:58;;;;;;;15.05;13.60;;;28.30;69.00;;;29.10;50.89;94162.75;5042340;28;20234;-81
2021/06/21 08:01:25;;;;;;;15.40;14.00;;;28.30;68.80;;;29.23;50.59;94153.59;5041745;28;20249;-79
2021/06/21 08:03:53;;;;;;;15.35;13.70;;;28.40;68.50;;;29.37;50.84;94153.38;5032028;28;20225;-80
2021/06/21 08:06:20;;;;;;;14.50;13.20;;;28.50;68.70;;;29.52;50.49;94160.09;5012787;28;20696;-80
2021/06/21 08:08:46;;;;;;;15.35;13.90;;;28.60;68.60;;;29.66;49.99;94157.09;4867775;28;20228;-80
2021/06/21 08:11:16;;;;;;;14.98;13.57;;;28.70;68.30;;;29.79;49.46;94163.34;4765575;29;20665;-81
2021/06/21 08:16:02;;;;;;;13.75;12.52;;;28.80;68.10;;;30.06;49.20;94164.69;5121002;27;20538;-80
2021/06/21 08:18:29;;;;;;;15.50;12.50;;;29.10;67.80;;;30.19;49.66;94166.28;5060627;28;20234;-81
2021/06/21 08:20:56;;;;;;;15.85;13.43;;;29.20;67.70;;;30.33;49.07;94163.28;5064381;28;20239;-80
2021/06/21 08:23:24;;;;;;;14.25;13.02;;;29.30;67.70;;;30.48;49.73;94166.44;5029453;28;20303;-80
2021/06/21 08:25:51;;;;;;;14.32;12.80;;;29.40;68.00;;;30.63;48.74;94167.72;4948372;28;20751;-79
2021/06/21 08:28:18;;;;;;;14.57;13.15;;;29.60;67.50;;;30.72;48.10;94173.81;4821371;29;20693;-80
2021/06/21 08:30:48;;;;;;;14.45;12.95;;;29.70;66.50;;;30.82;48.35;94167.16;4649671;30;20220;-80
2021/06/21 08:33:15;;;;;;;13.35;12.10;;;29.90;66.70;;;30.91;47.86;94173.25;4401198;31;20243;-80
2021/06/21 08:37:29;;;;;;;13.82;12.52;;;29.90;66.70;;;31.07;48.35;94169.84;5137157;27;20578;-81
2021/06/21 08:39:57;;;;;;;14.15;12.90;;;30.10;66.40;;;31.16;48.17;94170.53;5084256;28;20607;-79
2021/06/21 08:42:24;;;;;;;14.30;12.98;;;30.20;66.50;;;31.25;47.32;94170.38;5053731;28;20241;-81
2021/06/21 08:44:50;;;;;;;13.68;12.25;;;30.30;65.80;;;31.33;47.37;94172.19;5046122;28;20706;-80
2021/06/21 08:47:19;;;;;;;13.68;12.32;;;30.30;65.60;;;31.35;46.89;94159.09;4959562;28;20691;-82
2021/06/21 08:49:49;;;;;;;13.77;12.57;;;30.40;65.40;;;31.45;46.16;94166.72;4837647;29;20230;-81
2021/06/21 08:52:18;;;;;;;14.65;13.15;;;30.50;65.00;;;31.49;46.23;94172.25;4703651;30;20262;-79
2021/06/21 08:55:03;;;;;;;13.75;12.60;;;30.60;64.70;;;31.56;46.40;94163.53;5134530;27;20661;-81
2021/06/21 08:57:39;;;;;;;13.75;12.38;;;30.60;65.00;;;31.67;46.22;94174.72;5085171;28;20295;-81
2021/06/21 09:00:10;;;;;;;13.77;12.38;;;30.70;65.10;;;31.80;46.04;94168.09;5076583;28;20671;-80
2021/06/21 09:02:37;;;;;;;15.68;13.35;;;30.80;64.80;;;31.91;45.85;94171.88;5059681;28;20254;-80
2021/06/21 09:05:10;;;;;;;13.95;12.75;;;30.90;65.40;;;32.02;45.33;94172.19;4955074;28;20233;-81
2021/06/21 09:07:38;;;;;;;13.70;12.43;;;31.00;64.00;;;32.19;45.35;94181.09;4896849;29;20300;-80
2021/06/21 09:10:29;;;;;;;14.32;13.02;;;31.10;64.60;;;32.38;45.31;94181.25;4847402;29;20283;-81
2021/06/21 09:13:14;;;;;;;13.65;12.50;;;31.30;64.70;;;32.57;45.05;94171.63;4600004;30;20256;-81
2021/06/21 09:15:56;;;;;;;14.13;12.77;;;31.40;64.00;;;32.80;44.84;94184.59;5145880;27;20314;-81
2021/06/21 09:18:30;;;;;;;14.13;12.80;;;31.60;63.60;;;32.85;44.58;94187.06;5098009;28;20221;-81
2021/06/21 09:21:18;;;;;;;14.52;12.90;;;31.70;63.50;;;32.80;43.64;94185.41;5058251;28;20216;-81
2021/06/21 09:24:19;;;;;;;14.15;12.45;;;31.90;63.20;;;32.76;43.57;94178.31;5038766;28;20277;-81
2021/06/21 09:27:04;;;;;;;13.77;12.02;;;31.90;62.50;;;32.73;44.20;94169.69;5041759;28;20287;-81
2021/06/21 09:29:39;;;;;;;13.25;11.85;;;31.90;62.90;;;32.78;43.55;94165.94;4907246;29;20602;-80
2021/06/21 09:32:48;;;;;;;12.82;11.57;;;32.00;62.30;;;32.83;43.88;94164.91;4726251;29;20299;-81
2021/06/21 09:37:49;;;;;;;13.90;12.40;;;32.00;62.60;;;33.07;43.97;94172.03;5138962;27;20334;-80
2021/06/21 09:40:34;;;;;;;12.65;11.38;;;32.10;62.60;;;33.12;43.88;94182.63;5069253;28;20218;-81
2021/06/21 09:43:33;;;;;;;14.13;10.98;;;32.20;62.70;;;33.10;42.59;94189.56;5075857;28;20205;-81
2021/06/21 09:46:05;;;;;;;13.65;10.50;;;32.20;61.80;;;33.08;42.21;94194.56;5017459;28;20347;-81
2021/06/21 09:48:47;;;;;;;12.18;9.52;;;32.20;61.30;;;33.05;42.56;94183.25;4986305;28;20229;-81
2021/06/21 09:51:37;;;;;;;11.73;9.73;;;32.20;61.10;;;33.11;42.08;94177.56;4963599;28;20260;-81
2021/06/21 09:54:14;;;;;;;12.35;10.93;;;32.30;61.50;;;33.16;42.48;94177.28;4878702;29;20319;-81
2021/06/21 09:59:33;;;;;;;12.25;10.82;;;32.30;61.00;;;33.24;41.73;94170.06;5135700;27;20581;-81
2021/06/21 10:02:10;;;;;;;12.00;10.80;;;32.40;60.80;;;33.30;42.47;94171.38;5086144;28;20300;-81
2021/06/21 10:04:42;;;;;;;11.75;9.70;;;32.40;61.10;;;33.36;41.78;94165.31;5070274;28;20238;-81
2021/06/21 10:07:31;;;;;;;12.43;10.32;;;32.40;60.50;;;33.44;41.31;94168.19;5044211;28;20215;-81
2021/06/21 10:10:08;;;;;;;15.88;9.77;;;32.50;60.70;;;33.54;41.19;94175.75;4992102;28;20225;-79
2021/06/21 10:12:37;;;;;;;13.80;10.27;;;32.50;59.80;;;33.62;41.06;94166.59;4942002;28;20219;-81
2021/06/21 10:15:10;;;;;;;11.15;9.95;;;32.60;59.90;;;33.68;40.58;94170.63;4948362;28;20589;-82
2021/06/21 10:17:55;;;;;;;13.48;9.73;;;32.70;59.20;;;33.80;40.60;94163.44;5129651;27;20961;-81
2021/06/21 10:20:22;;;;;;;10.23;8.70;;;32.70;59.40;;;33.88;40.09;94164.41;5090853;28;20747;-81
2021/06/21 10:22:50;;;;;;;12.88;9.38;;;32.80;59.10;;;33.92;39.90;94162.53;5108700;28;20580;-81
2021/06/21 10:25:16;;;;;;;10.30;8.27;;;32.90;58.70;;;33.96;40.38;94158.75;5087741;28;20218;-81
2021/06/21 10:27:46;;;;;;;10.90;8.52;;;33.00;58.60;;;34.04;39.80;94158.88;5048324;28;20250;-82
2021/06/21 10:30:19;;;;;;;9.63;8.25;;;33.00;58.10;;;34.14;39.10;94166.44;4952781;28;20337;-81
2021/06/21 10:32:49;;;;;;;12.15;8.70;;;33.10;58.00;;;34.15;38.55;94160.66;4841543;29;20291;-81
2021/06/21 10:35:17;;;;;;;13.85;8.70;;;33.20;57.30;;;34.19;38.96;94157.97;4761039;29;20237;-80
2021/06/21 10:39:38;;;;;;;16.63;9.73;;;33.30;57.00;;;34.19;37.30;94154.47;5137210;27;21146;-81
2021/06/21 10:42:04;;;;;;;13.88;9.40;;;33.30;55.70;;;34.18;37.47;94155.63;5104517;28;20214;-81
2021/06/21 10:44:55;;;;;;;9.93;8.88;;;33.30;55.80;;;34.21;37.77;94150.22;5045802;28;20790;-80
2021/06/21 10:47:43;;;;;;;15.23;9.00;;;33.40;56.90;;;34.28;38.55;94152.31;5006228;28;20273;-81
2021/06/21 10:50:19;;;;;;;9.90;7.80;;;33.40;57.30;;;34.39;38.60;94147.06;4922765;29;20639;-80
2021/06/21 10:52:50;;;;;;;10.43;7.60;;;33.40;57.40;;;34.46;38.15;94152.63;4885622;29;20220;-81
2021/06/21 10:55:26;;;;;;;11.18;8.20;;;33.50;56.60;;;34.50;38.24;94145.31;4799041;29;20333;-81
2021/06/21 10:59:26;;;;;;;9.30;7.40;;;33.60;56.30;;;34.51;37.48;94141.44;5138551;27;20921;-81
2021/06/21 11:01:58;;;;;;;10.30;7.95;;;33.70;55.60;;;34.59;37.93;94148.53;5085558;28;20210;-82
2021/06/21 11:04:37;;;;;;;13.02;8.90;;;33.70;56.30;;;34.69;37.63;94157.25;5101620;28;20223;-82
2021/06/21 11:07:12;;;;;;;11.93;8.35;;;33.70;56.00;;;34.67;37.19;94148.66;5066205;28;20666;-81
2021/06/21 11:09:55;;;;;;;12.55;8.35;;;33.80;55.70;;;34.57;36.32;94158.25;5035007;28;20613;-81
2021/06/21 11:12:31;;;;;;;10.88;8.02;;;33.80;54.00;;;34.39;36.66;94160.69;5006551;28;20693;-81
2021/06/21 11:15:07;;;;;;;13.77;8.10;;;33.80;54.10;;;34.22;36.40;94161.91;4895244;28;20844;-81